createdAt,value
2022-10-18T00:02:17.102Z,5.95
2022-10-18T00:04:43.704Z,5.55
2022-10-18T00:07:10.398Z,5.95
2022-10-18T00:09:37.650Z,6.60
2022-10-18T00:12:06.535Z,6.15
2022-10-18T00:14:33.156Z,5.80
2022-10-18T00:16:59.856Z,6.22
2022-10-18T00:19:29.182Z,6.43
2022-10-18T00:21:56.323Z,6.10
2022-10-18T00:24:23.000Z,5.50
2022-10-18T00:26:49.619Z,5.85
2022-10-18T00:29:17.189Z,6.20
2022-10-18T00:31:44.387Z,5.97
2022-10-18T00:34:16.254Z,6.47
2022-10-18T00:36:44.041Z,5.40
2022-10-18T00:39:17.928Z,5.65
2022-10-18T00:41:44.827Z,5.03
2022-10-18T00:44:11.383Z,5.30
2022-10-18T00:46:43.112Z,5.22
2022-10-18T00:49:16.745Z,5.70
2022-10-18T00:52:05.368Z,5.95
2022-10-18T00:54:36.004Z,5.07
2022-10-18T00:57:02.815Z,6.10
2022-10-18T00:59:29.556Z,5.18
2022-10-18T01:01:56.295Z,6.72
2022-10-18T01:04:23.381Z,5.53
2022-10-18T01:07:15.418Z,5.00
2022-10-18T01:10:16.266Z,5.30
2022-10-18T01:12:57.543Z,5.65
2022-10-18T01:15:26.395Z,4.93
2022-10-18T01:18:02.005Z,5.78
2022-10-18T01:20:58.747Z,6.13
2022-10-18T01:23:31.504Z,5.40
2022-10-18T01:26:26.951Z,4.80
2022-10-18T01:29:02.820Z,5.07
2022-10-18T01:31:59.652Z,5.43
2022-10-18T01:34:28.157Z,4.93
2022-10-18T01:36:55.857Z,5.45
2022-10-18T01:39:29.036Z,5.60
2022-10-18T01:41:57.215Z,5.82
2022-10-18T01:44:26.403Z,4.30
2022-10-18T01:46:55.212Z,4.75
2022-10-18T01:49:22.038Z,4.57
2022-10-18T01:51:48.715Z,5.00
2022-10-18T01:54:19.633Z,4.70
2022-10-18T01:59:48.609Z,4.82
2022-10-18T02:02:32.257Z,4.50
2022-10-18T02:04:59.151Z,5.15
2022-10-18T02:07:31.574Z,4.35
2022-10-18T02:13:02.574Z,5.30
2022-10-18T02:15:39.603Z,4.80
2022-10-18T02:18:09.701Z,5.30
2022-10-18T02:20:36.837Z,5.13
2022-10-18T02:23:05.603Z,5.10
2022-10-18T02:25:34.336Z,4.55
2022-10-18T02:28:01.992Z,4.38
2022-10-18T02:30:52.086Z,4.65
2022-10-18T02:33:34.494Z,4.97
2022-10-18T02:36:05.655Z,4.78
2022-10-18T02:38:32.505Z,4.63
2022-10-18T02:40:59.421Z,4.22
2022-10-18T02:43:26.774Z,5.25
2022-10-18T02:45:53.548Z,4.72
2022-10-18T02:48:20.216Z,4.25
2022-10-18T02:50:46.831Z,4.40
2022-10-18T02:53:13.427Z,4.78
2022-10-18T02:55:40.095Z,4.70
2022-10-18T02:58:06.865Z,4.45
2022-10-18T03:00:33.486Z,4.47
2022-10-18T03:03:00.135Z,4.85
2022-10-18T03:05:26.745Z,5.22
2022-10-18T03:07:53.417Z,4.72
2022-10-18T03:10:20.032Z,4.57
2022-10-18T03:12:46.644Z,4.53
2022-10-18T03:15:13.315Z,4.82
2022-10-18T03:17:39.985Z,4.75
2022-10-18T03:20:07.170Z,4.43
2022-10-18T03:22:33.840Z,5.18
2022-10-18T03:25:00.636Z,5.05
2022-10-18T03:27:27.261Z,5.00
2022-10-18T03:29:53.862Z,4.15
2022-10-18T03:32:20.567Z,4.57
2022-10-18T03:34:47.261Z,4.68
2022-10-18T03:37:13.900Z,4.22
2022-10-18T03:39:40.489Z,4.45
2022-10-18T03:42:07.214Z,4.50
2022-10-18T03:44:33.885Z,4.47
2022-10-18T03:47:00.561Z,4.22
2022-10-18T03:49:27.224Z,5.30
2022-10-18T03:51:53.939Z,4.50
2022-10-18T03:54:20.548Z,4.70
2022-10-18T03:56:47.337Z,4.20
2022-10-18T03:59:14.263Z,3.72
2022-10-18T04:01:40.944Z,5.00
2022-10-18T04:04:07.789Z,4.75
2022-10-18T04:06:34.532Z,4.13
2022-10-18T04:09:02.354Z,4.70
2022-10-18T04:11:31.136Z,4.57
2022-10-18T04:13:57.817Z,5.00
2022-10-18T04:16:24.726Z,4.75
2022-10-18T04:18:51.352Z,4.70
2022-10-18T04:21:18.134Z,4.63
2022-10-18T04:23:47.941Z,3.72
2022-10-18T04:26:16.570Z,4.80
2022-10-18T04:28:44.058Z,4.68
2022-10-18T04:31:11.395Z,4.82
2022-10-18T04:33:38.774Z,3.88
2022-10-18T04:36:05.523Z,4.47
2022-10-18T04:38:32.164Z,4.63
2022-10-18T04:40:58.854Z,4.13
2022-10-18T04:43:25.601Z,3.83
2022-10-18T04:45:52.356Z,5.82
2022-10-18T04:48:19.180Z,4.10
2022-10-18T04:50:48.868Z,3.95
2022-10-18T04:53:16.558Z,4.03
2022-10-18T04:55:45.320Z,4.38
2022-10-18T04:58:12.096Z,4.10
2022-10-18T05:00:40.082Z,4.10
2022-10-18T05:03:07.663Z,4.18
2022-10-18T05:05:49.709Z,4.82
2022-10-18T05:08:21.961Z,4.00
2022-10-18T05:10:48.607Z,4.10
2022-10-18T05:13:15.411Z,4.05
2022-10-18T05:15:42.568Z,3.75
2022-10-18T05:18:09.233Z,4.20
2022-10-18T05:20:35.906Z,4.10
2022-10-18T05:23:02.672Z,3.88
2022-10-18T05:25:29.349Z,4.25
2022-10-18T05:27:56.818Z,4.60
2022-10-18T05:30:23.509Z,3.72
2022-10-18T05:32:50.172Z,4.05
2022-10-18T05:35:16.932Z,3.88
2022-10-18T05:37:43.572Z,4.55
2022-10-18T05:40:10.983Z,4.50
2022-10-18T05:42:37.673Z,4.40
2022-10-18T05:45:04.527Z,4.22
2022-10-18T05:47:31.395Z,3.80
2022-10-18T05:49:58.129Z,4.75
2022-10-18T05:52:24.870Z,4.03
2022-10-18T05:54:52.335Z,4.25
2022-10-18T05:57:19.384Z,3.95
2022-10-18T05:59:46.264Z,4.75
2022-10-18T06:02:13.227Z,4.90
2022-10-18T06:04:39.944Z,5.07
2022-10-18T06:07:12.698Z,5.50
2022-10-18T06:09:39.332Z,6.15
2022-10-18T06:12:06.099Z,4.70
2022-10-18T06:14:32.948Z,5.20
2022-10-18T06:16:59.828Z,6.07
2022-10-18T06:19:26.959Z,5.30
2022-10-18T06:21:53.604Z,5.65
2022-10-18T06:24:21.671Z,5.20
2022-10-18T06:26:49.372Z,5.15
2022-10-18T06:29:16.070Z,5.28
2022-10-18T06:31:42.727Z,5.28
2022-10-18T06:34:09.651Z,5.50
2022-10-18T06:36:36.262Z,5.18
2022-10-18T06:39:03.027Z,4.82
2022-10-18T06:41:29.707Z,4.80
2022-10-18T06:44:07.299Z,4.72
2022-10-18T06:46:33.999Z,4.70
2022-10-18T06:49:00.704Z,4.43
2022-10-18T06:51:27.323Z,4.47
2022-10-18T06:54:06.218Z,4.05
2022-10-18T06:56:40.824Z,4.45
2022-10-18T06:59:07.519Z,5.10
2022-10-18T07:01:34.237Z,4.68
2022-10-18T07:04:00.957Z,4.35
2022-10-18T07:06:27.740Z,3.83
2022-10-18T07:08:54.810Z,4.55
2022-10-18T07:11:25.093Z,4.72
2022-10-18T07:13:54.518Z,3.97
2022-10-18T07:16:21.499Z,3.65
2022-10-18T07:18:49.978Z,4.22
2022-10-18T07:21:19.084Z,4.40
2022-10-18T07:23:46.483Z,3.67
2022-10-18T07:26:25.523Z,4.43
2022-10-18T07:28:55.370Z,4.93
2022-10-18T07:31:22.992Z,4.93
2022-10-18T07:33:49.672Z,4.50
2022-10-18T07:36:16.818Z,4.55
2022-10-18T07:38:44.667Z,4.55
2022-10-18T07:41:12.967Z,4.72
2022-10-18T07:43:47.699Z,4.00
2022-10-18T07:46:15.172Z,4.55
2022-10-18T07:48:42.106Z,4.18
2022-10-18T07:51:09.384Z,4.93
2022-10-18T07:53:36.369Z,4.00
2022-10-18T07:56:08.692Z,4.57
2022-10-18T07:58:36.626Z,4.03
2022-10-18T08:01:07.396Z,4.63
2022-10-18T08:03:35.252Z,4.05
2022-10-18T08:06:02.261Z,4.70
2022-10-18T08:08:29.264Z,4.93
2022-10-18T08:10:56.237Z,4.35
2022-10-18T08:13:22.924Z,4.35
2022-10-18T08:15:49.564Z,4.45
2022-10-18T08:18:16.221Z,4.30
2022-10-18T08:20:46.282Z,4.60
2022-10-18T08:23:13.049Z,4.25
2022-10-18T08:25:39.987Z,4.32
2022-10-18T08:28:07.381Z,4.55
2022-10-18T08:30:35.373Z,4.80
2022-10-18T08:33:02.970Z,4.80
2022-10-18T08:35:29.661Z,5.40
2022-10-18T08:37:56.231Z,4.13
2022-10-18T08:40:23.099Z,4.97
2022-10-18T08:43:01.896Z,5.15
2022-10-18T08:45:41.566Z,5.40
2022-10-18T08:48:18.038Z,4.40
2022-10-18T08:50:45.458Z,5.28
2022-10-18T08:53:17.676Z,4.47
2022-10-18T08:56:14.667Z,5.22
2022-10-18T08:58:44.045Z,5.10
2022-10-18T09:01:33.011Z,4.72
2022-10-18T09:04:23.969Z,4.47
2022-10-18T09:07:08.585Z,4.68
2022-10-18T09:10:03.174Z,4.53
2022-10-18T09:12:50.782Z,5.05
2022-10-18T09:15:23.324Z,4.88
2022-10-18T09:18:23.814Z,4.82
2022-10-18T09:21:00.086Z,4.90
2022-10-18T09:23:41.170Z,5.80
2022-10-18T09:26:15.447Z,6.18
2022-10-18T09:29:12.587Z,6.05
2022-10-18T09:32:16.772Z,5.45
2022-10-18T09:34:51.505Z,4.45
2022-10-18T09:37:20.142Z,4.13
2022-10-18T09:39:48.387Z,4.03
2022-10-18T09:42:26.667Z,3.30
2022-10-18T09:45:01.233Z,4.18
2022-10-18T09:47:34.058Z,3.97
2022-10-18T09:50:33.804Z,4.13
2022-10-18T09:53:25.921Z,4.10
2022-10-18T09:56:00.932Z,4.55
2022-10-18T09:58:44.130Z,3.92
2022-10-18T10:01:22.104Z,4.22
2022-10-18T10:03:48.744Z,4.05
2022-10-18T10:06:16.307Z,3.55
2022-10-18T10:08:45.116Z,3.83
2022-10-18T10:11:31.151Z,4.00
2022-10-18T10:14:07.838Z,3.95
2022-10-18T10:16:43.200Z,4.00
2022-10-18T10:19:17.557Z,4.65
2022-10-18T10:21:44.335Z,4.13
2022-10-18T10:24:21.611Z,4.47
2022-10-18T10:26:48.731Z,4.28
2022-10-18T10:30:05.805Z,4.30
2022-10-18T10:32:47.371Z,4.22
2022-10-18T10:35:42.233Z,4.10
2022-10-18T10:38:23.744Z,5.35
2022-10-18T10:40:50.919Z,4.00
2022-10-18T10:43:38.682Z,4.00
2022-10-18T10:46:15.034Z,5.20
2022-10-18T10:49:00.376Z,3.75
2022-10-18T10:51:39.528Z,4.40
2022-10-18T10:54:22.574Z,4.05
2022-10-18T10:57:04.045Z,3.90
2022-10-18T10:59:34.313Z,4.00
2022-10-18T11:02:19.283Z,3.88
2022-10-18T11:04:47.435Z,4.25
2022-10-18T11:07:33.626Z,3.97
2022-10-18T11:10:06.975Z,3.70
2022-10-18T11:12:36.838Z,3.78
2022-10-18T11:15:03.387Z,4.00
2022-10-18T11:17:35.822Z,4.32
2022-10-18T11:22:56.426Z,3.83
2022-10-18T11:25:26.074Z,4.13
2022-10-18T11:28:04.331Z,4.03
2022-10-18T11:30:40.182Z,3.97
2022-10-18T11:33:18.621Z,3.38
2022-10-18T11:35:51.069Z,3.78
2022-10-18T11:38:36.329Z,3.30
2022-10-18T11:41:24.886Z,4.07
2022-10-18T11:44:03.628Z,3.42
2022-10-18T11:46:47.828Z,3.15
2022-10-18T11:49:41.752Z,2.90
2022-10-18T11:52:15.889Z,3.08
2022-10-18T11:54:52.530Z,2.53
2022-10-18T11:57:44.516Z,3.00
2022-10-18T12:00:39.637Z,3.20
2022-10-18T12:03:22.809Z,3.20
2022-10-18T12:05:50.440Z,3.20
2022-10-18T12:08:23.786Z,2.45
2022-10-18T12:11:07.934Z,2.78
2022-10-18T12:13:45.195Z,2.80
2022-10-18T12:16:12.417Z,2.85
2022-10-18T12:19:13.133Z,3.30
2022-10-18T12:21:40.738Z,2.67
2022-10-18T12:24:09.089Z,3.10
2022-10-18T12:26:36.386Z,2.90
2022-10-18T12:29:16.331Z,3.10
2022-10-18T12:31:48.645Z,2.67
2022-10-18T12:37:15.677Z,2.95
2022-10-18T12:40:09.323Z,2.70
2022-10-18T12:42:44.501Z,3.08
2022-10-18T12:45:19.245Z,3.00
2022-10-18T12:47:45.831Z,3.35
2022-10-18T12:50:32.460Z,3.00
2022-10-18T12:53:03.686Z,3.33
2022-10-18T12:55:33.357Z,3.15
2022-10-18T12:58:01.211Z,2.83
2022-10-18T13:00:30.888Z,3.20
2022-10-18T13:03:16.511Z,3.20
2022-10-18T13:05:54.690Z,2.67
2022-10-18T13:08:28.242Z,3.25
2022-10-18T13:11:07.101Z,2.90
2022-10-18T13:13:58.499Z,2.95
2022-10-18T13:16:46.264Z,2.50
2022-10-18T13:19:31.317Z,2.65
2022-10-18T13:22:07.381Z,2.47
2022-10-18T13:24:44.079Z,2.88
2022-10-18T13:27:37.009Z,2.22
2022-10-18T13:30:40.092Z,2.10
2022-10-18T13:36:02.340Z,2.20
2022-10-18T13:38:38.689Z,2.05
2022-10-18T13:41:11.633Z,2.50
2022-10-18T13:43:53.699Z,2.78
2022-10-18T13:46:33.390Z,2.17
2022-10-18T13:49:20.245Z,2.53
2022-10-18T13:52:14.521Z,3.00
2022-10-18T13:54:50.015Z,2.58
2022-10-18T13:57:53.772Z,2.80
2022-10-18T14:00:48.839Z,2.97
2022-10-18T14:03:55.712Z,3.20
2022-10-18T14:06:28.565Z,3.70
2022-10-18T14:09:09.534Z,3.63
2022-10-18T14:11:51.406Z,3.13
2022-10-18T14:14:46.507Z,2.97
2022-10-18T14:17:29.884Z,3.08
2022-10-18T14:20:40.094Z,3.25
2022-10-18T14:23:24.150Z,3.58
2022-10-18T14:25:50.800Z,3.63
2022-10-18T14:28:21.684Z,3.38
2022-10-18T14:31:00.171Z,3.22
2022-10-18T14:33:30.596Z,3.03
2022-10-18T14:36:04.273Z,2.97
2022-10-18T14:38:31.156Z,3.30
2022-10-18T14:41:13.041Z,2.75
2022-10-18T14:43:39.779Z,3.03
2022-10-18T14:46:27.243Z,2.83
2022-10-18T14:49:01.734Z,3.25
2022-10-18T14:53:56.318Z,2.80
2022-10-18T14:56:28.138Z,2.10
2022-10-18T14:58:56.711Z,2.10
2022-10-18T15:01:26.319Z,2.58
2022-10-18T15:03:58.270Z,2.60
2022-10-18T15:06:28.180Z,3.05
2022-10-18T15:08:57.605Z,2.58
2022-10-18T15:11:36.111Z,2.90
2022-10-18T15:14:08.807Z,2.65
2022-10-18T15:16:38.444Z,2.70
2022-10-18T15:19:23.846Z,2.80
2022-10-18T15:25:17.146Z,3.15
2022-10-18T15:27:48.951Z,2.85
2022-10-18T15:30:25.001Z,3.50
2022-10-18T15:33:07.526Z,3.10
2022-10-18T15:35:36.719Z,3.83
2022-10-18T15:38:17.093Z,2.92
2022-10-18T15:40:44.038Z,3.10
2022-10-18T15:43:22.936Z,3.58
2022-10-18T15:45:52.324Z,3.38
2022-10-18T15:48:27.850Z,3.45
2022-10-18T15:51:02.101Z,3.55
2022-10-18T15:53:41.872Z,3.08
2022-10-18T15:56:37.667Z,3.45
2022-10-18T15:59:23.251Z,3.70
2022-10-18T16:01:57.914Z,3.10
2022-10-18T16:04:43.373Z,3.25
2022-10-18T16:07:12.251Z,3.67
2022-10-18T16:09:39.014Z,3.13
2022-10-18T16:12:05.628Z,3.60
2022-10-18T16:14:32.569Z,3.28
2022-10-18T16:17:01.082Z,3.25
2022-10-18T16:19:28.508Z,3.40
2022-10-18T16:21:55.590Z,3.95
2022-10-18T16:24:22.595Z,3.08
2022-10-18T16:26:49.789Z,3.10
2022-10-18T16:29:21.697Z,2.92
2022-10-18T16:31:48.396Z,3.15
2022-10-18T16:34:15.371Z,3.42
2022-10-18T16:36:41.981Z,3.60
2022-10-18T16:39:15.279Z,3.53
2022-10-18T16:41:42.025Z,3.40
2022-10-18T16:44:08.685Z,3.53
2022-10-18T16:46:35.467Z,2.53
2022-10-18T16:49:02.514Z,3.35
2022-10-18T16:51:29.365Z,3.58
2022-10-18T16:53:55.984Z,3.97
2022-10-18T16:56:26.796Z,3.70
2022-10-18T16:58:53.776Z,3.42
2022-10-18T17:01:21.989Z,3.70
2022-10-18T17:03:48.817Z,3.75
2022-10-18T17:06:26.683Z,4.00
2022-10-18T17:08:54.034Z,4.20
2022-10-18T17:11:21.893Z,4.50
2022-10-18T17:13:48.692Z,4.25
2022-10-18T17:16:33.473Z,4.70
2022-10-18T17:19:02.884Z,4.32
2022-10-18T17:21:30.132Z,5.40
2022-10-18T17:24:03.143Z,4.50
2022-10-18T17:26:30.745Z,4.70
2022-10-18T17:29:00.177Z,4.38
2022-10-18T17:31:27.786Z,4.88
2022-10-18T17:33:55.529Z,4.60
2022-10-18T17:36:22.505Z,5.30
2022-10-18T17:38:53.456Z,5.18
2022-10-18T17:41:20.665Z,5.05
2022-10-18T17:43:48.469Z,5.55
2022-10-18T17:46:16.011Z,4.70
2022-10-18T17:48:42.912Z,5.47
2022-10-18T17:51:15.392Z,5.55
2022-10-18T17:53:42.205Z,4.95
2022-10-18T17:56:10.361Z,4.53
2022-10-18T17:58:37.585Z,5.00
2022-10-18T18:01:23.204Z,4.50
2022-10-18T18:03:50.756Z,4.28
2022-10-18T18:06:22.726Z,5.18
2022-10-18T18:08:50.231Z,5.13
2022-10-18T18:11:17.818Z,5.18
2022-10-18T18:13:44.612Z,4.63
2022-10-18T18:16:17.412Z,4.75
2022-10-18T18:18:50.489Z,5.65
2022-10-18T18:21:20.954Z,4.45
2022-10-18T18:23:48.993Z,4.05
2022-10-18T18:26:17.415Z,5.32
2022-10-18T18:28:44.375Z,4.57
2022-10-18T18:31:19.470Z,4.20
2022-10-18T18:33:46.205Z,4.18
2022-10-18T18:36:13.124Z,4.72
2022-10-18T18:38:42.661Z,4.57
2022-10-18T18:41:16.718Z,4.32
2022-10-18T18:43:51.868Z,4.57
2022-10-18T18:46:18.829Z,4.50
2022-10-18T18:48:45.515Z,4.90
2022-10-18T18:51:14.887Z,4.57
2022-10-18T18:53:42.673Z,5.22
2022-10-18T18:56:12.737Z,4.97
2022-10-18T18:58:40.553Z,5.15
2022-10-18T19:01:09.053Z,4.90
2022-10-18T19:03:36.081Z,5.07
2022-10-18T19:06:07.535Z,4.47
2022-10-18T19:08:39.290Z,4.63
2022-10-18T19:11:09.186Z,4.55
2022-10-18T19:13:36.609Z,5.20
2022-10-18T19:16:24.448Z,4.60
2022-10-18T19:19:14.484Z,4.95
2022-10-18T19:21:58.461Z,5.50
2022-10-18T19:24:26.611Z,5.45
2022-10-18T19:26:57.962Z,4.97
2022-10-18T19:29:30.223Z,4.65
2022-10-18T19:31:58.794Z,5.25
2022-10-18T19:34:26.793Z,5.38
2022-10-18T19:36:53.417Z,5.43
2022-10-18T19:39:23.937Z,5.30
2022-10-18T19:41:53.211Z,5.05
2022-10-18T19:44:20.267Z,4.90
2022-10-18T19:46:47.240Z,5.82
2022-10-18T19:49:14.195Z,5.00
2022-10-18T19:51:40.983Z,5.10
2022-10-18T19:54:07.750Z,5.00
2022-10-18T19:56:34.447Z,5.78
2022-10-18T19:59:01.310Z,5.18
2022-10-18T20:01:29.161Z,5.53
2022-10-18T20:03:56.100Z,5.63
2022-10-18T20:06:22.903Z,5.32
2022-10-18T20:08:50.092Z,6.00
2022-10-18T20:11:19.533Z,5.20
2022-10-18T20:13:46.620Z,6.10
2022-10-18T20:16:14.540Z,5.78
2022-10-18T20:18:43.257Z,5.93
2022-10-18T20:21:11.893Z,6.18
2022-10-18T20:23:40.159Z,5.22
2022-10-18T20:26:17.991Z,6.30
2022-10-18T20:28:56.941Z,5.75
2022-10-18T20:31:31.762Z,5.95
2022-10-18T20:34:00.706Z,6.13
2022-10-18T20:36:29.025Z,5.80
2022-10-18T20:38:56.327Z,6.15
2022-10-18T20:41:36.481Z,7.03
2022-10-18T20:44:05.547Z,5.43
2022-10-18T20:46:34.278Z,7.60
2022-10-18T20:49:00.966Z,5.30
2022-10-18T20:51:28.088Z,5.95
2022-10-18T20:53:54.897Z,5.28
2022-10-18T20:56:27.192Z,6.43
2022-10-18T20:58:56.294Z,5.32
2022-10-18T21:01:25.394Z,6.45
2022-10-18T21:03:53.547Z,6.10
2022-10-18T21:06:32.288Z,6.35
2022-10-18T21:09:01.325Z,6.93
2022-10-18T21:11:29.008Z,6.50
2022-10-18T21:14:00.243Z,6.43
2022-10-18T21:16:27.338Z,6.30
2022-10-18T21:18:54.044Z,7.32
2022-10-18T21:21:23.171Z,7.70
2022-10-18T21:23:50.488Z,7.55
2022-10-18T21:26:20.229Z,7.55
2022-10-18T21:28:47.541Z,8.68
2022-10-18T21:31:17.917Z,8.45
2022-10-18T21:33:45.695Z,9.07
2022-10-18T21:36:12.697Z,8.85
2022-10-18T21:38:39.575Z,9.27
2022-10-18T21:41:10.823Z,9.05
2022-10-18T21:43:45.202Z,9.15
2022-10-18T21:46:12.736Z,9.10
2022-10-18T21:48:42.936Z,8.82
2022-10-18T21:51:10.176Z,8.40
2022-10-18T21:53:36.859Z,9.10
2022-10-18T21:56:10.624Z,8.90
2022-10-18T21:58:37.495Z,9.45
2022-10-18T22:01:12.310Z,9.38
2022-10-18T22:03:39.534Z,9.02
2022-10-18T22:06:13.325Z,8.98
2022-10-18T22:08:41.438Z,8.43
2022-10-18T22:11:08.994Z,9.05
2022-10-18T22:13:35.680Z,8.70
2022-10-18T22:16:04.999Z,7.90
2022-10-18T22:18:32.208Z,8.43
2022-10-18T22:21:01.415Z,7.57
2022-10-18T22:23:36.059Z,7.97
2022-10-18T22:26:07.789Z,7.88
2022-10-18T22:28:35.613Z,8.88
2022-10-18T22:31:02.508Z,8.25
2022-10-18T22:33:29.359Z,8.48
2022-10-18T22:35:55.997Z,8.65
2022-10-18T22:38:23.182Z,9.02
2022-10-18T22:40:50.271Z,8.38
2022-10-18T22:43:16.967Z,8.55
2022-10-18T22:45:43.731Z,8.98
2022-10-18T22:48:10.434Z,9.40
2022-10-18T22:50:37.088Z,9.18
2022-10-18T22:53:03.776Z,8.38
2022-10-18T22:55:30.487Z,8.50
2022-10-18T22:57:57.096Z,8.88
2022-10-18T23:00:23.745Z,7.38
2022-10-18T23:02:50.496Z,8.55
2022-10-18T23:05:17.236Z,8.43
2022-10-18T23:07:49.066Z,7.90
2022-10-18T23:10:15.811Z,8.45
2022-10-18T23:12:42.496Z,8.13
2022-10-18T23:15:09.602Z,8.35
2022-10-18T23:17:36.760Z,7.53
2022-10-18T23:20:04.608Z,7.45
2022-10-18T23:22:31.674Z,7.18
2022-10-18T23:24:58.473Z,6.28
2022-10-18T23:27:25.343Z,7.72
2022-10-18T23:29:51.995Z,7.38
2022-10-18T23:32:18.649Z,7.00
2022-10-18T23:34:45.264Z,6.95
2022-10-18T23:37:11.935Z,7.22
2022-10-18T23:39:38.661Z,7.32
2022-10-18T23:42:05.361Z,6.80
2022-10-18T23:44:32.030Z,7.70
2022-10-18T23:46:58.647Z,6.47
2022-10-18T23:49:25.293Z,7.13
2022-10-18T23:51:52.062Z,8.18
2022-10-18T23:54:18.680Z,7.40
2022-10-18T23:56:45.327Z,7.45
2022-10-18T23:59:11.981Z,7.00
